Time;durP1;ratioP1;P1;durP2;ratioP2;P2;SDS_P1;SDS_P2;PMS_P1;PMS_P2;Temp;Humidity;BMP_temperature;BMP_pressure;BME280_temperature;BME280_humidity;BME280_pressure;Samples;Min_cycle;Max_cycle;Signal;HPM_P1;HPM_P2
2023/08/22 00:01:19;;;;;;;1.52;1.23;;;22.40;99.90;;;;;;4164923;28;20044;-63
2023/08/22 00:03:20;;;;;;;4.05;1.60;;;22.40;99.90;;;;;;4164776;28;20051;-62
2023/08/22 00:05:21;;;;;;;2.83;1.40;;;22.40;99.90;;;;;;4163418;28;20041;-62
2023/08/22 00:07:22;;;;;;;2.03;1.33;;;22.40;99.90;;;;;;4175491;28;20079;-62
2023/08/22 00:09:24;;;;;;;6.07;1.30;;;22.30;99.90;;;;;;4160033;28;20604;-62
2023/08/22 00:11:24;;;;;;;3.70;1.58;;;22.20;99.90;;;;;;4165079;28;20033;-63
2023/08/22 00:13:25;;;;;;;1.65;1.40;;;22.20;99.90;;;;;;4165447;28;20033;-62
2023/08/22 00:15:27;;;;;;;1.92;1.48;;;22.30;99.90;;;;;;4150705;28;20442;-62
2023/08/22 00:17:27;;;;;;;1.85;1.40;;;22.30;99.90;;;;;;4164367;28;20029;-62
2023/08/22 00:19:28;;;;;;;2.17;1.48;;;22.30;99.90;;;;;;4164666;28;20030;-62
2023/08/22 00:21:30;;;;;;;2.97;1.63;;;22.30;99.90;;;;;;4164888;28;20120;-62
2023/08/22 00:23:33;;;;;;;4.22;1.60;;;22.20;99.90;;;;;;4180268;28;20052;-62
2023/08/22 00:25:33;;;;;;;1.85;1.40;;;22.20;99.90;;;;;;4163670;28;20052;-63
2023/08/22 00:27:34;;;;;;;2.50;1.30;;;22.20;99.90;;;;;;4163482;28;20040;-62
2023/08/22 00:29:35;;;;;;;1.92;1.60;;;22.10;99.90;;;;;;4157509;28;20044;-62
2023/08/22 00:31:35;;;;;;;1.58;1.10;;;22.20;99.90;;;;;;4151426;28;20034;-62
2023/08/22 00:33:36;;;;;;;3.15;1.30;;;22.10;99.90;;;;;;4162456;28;20028;-62
2023/08/22 00:35:37;;;;;;;3.67;1.30;;;22.10;99.90;;;;;;4163842;28;20485;-62
2023/08/22 00:37:37;;;;;;;1.88;1.25;;;22.10;99.90;;;;;;4165177;28;20037;-62
2023/08/22 00:39:38;;;;;;;1.90;1.30;;;22.10;99.90;;;;;;4161665;28;20168;-74
2023/08/22 00:41:38;;;;;;;2.17;1.67;;;22.10;99.90;;;;;;4166277;28;20051;-74
2023/08/22 00:43:39;;;;;;;3.13;1.60;;;22.00;99.90;;;;;;4166803;28;20039;-74
2023/08/22 00:45:42;;;;;;;1.58;1.27;;;22.00;99.90;;;;;;4164224;28;20038;-75
2023/08/22 00:47:43;;;;;;;2.30;1.40;;;22.00;99.90;;;;;;4160619;28;20029;-74
2023/08/22 00:49:43;;;;;;;2.15;1.20;;;22.00;99.90;;;;;;4161085;28;20148;-74
2023/08/22 00:51:44;;;;;;;2.47;1.30;;;22.00;99.90;;;;;;4157994;28;20037;-74
2023/08/22 00:53:45;;;;;;;2.10;1.40;;;22.00;99.90;;;;;;4161463;28;20052;-74
2023/08/22 00:55:46;;;;;;;3.17;1.40;;;21.90;99.90;;;;;;4155834;28;20036;-74
2023/08/22 00:57:46;;;;;;;2.33;1.42;;;21.90;99.90;;;;;;4161497;28;20083;-74
2023/08/22 00:59:47;;;;;;;1.80;1.30;;;21.90;99.90;;;;;;4157872;28;20034;-73
2023/08/22 01:01:48;;;;;;;2.03;1.40;;;21.90;99.90;;;;;;4161346;28;20481;-74
2023/08/22 01:03:48;;;;;;;1.67;1.40;;;21.90;99.90;;;;;;4159672;28;20042;-73
2023/08/22 01:05:57;;;;;;;2.03;1.08;;;21.90;99.90;;;;;;4157948;28;20040;-77
2023/08/22 01:08:14;;;;;;;3.22;1.63;;;21.80;99.90;;;;;;4159695;28;20030;-78
2023/08/22 01:10:24;;;;;;;1.50;1.30;;;21.80;99.90;;;;;;4156559;28;20044;-77
2023/08/22 01:12:45;;;;;;;1.75;1.05;;;21.80;99.90;;;;;;4161471;28;20083;-77
2023/08/22 01:14:53;;;;;;;2.40;1.25;;;21.80;99.90;;;;;;4161607;28;20160;-77
2023/08/22 01:16:55;;;;;;;1.88;1.23;;;21.70;99.90;;;;;;4157211;28;20288;-78
2023/08/22 01:19:01;;;;;;;4.82;1.60;;;21.70;99.90;;;;;;4154579;28;20116;-77
2023/08/22 01:21:05;;;;;;;1.85;1.20;;;21.70;99.90;;;;;;4153967;28;20036;-77
2023/08/22 01:23:06;;;;;;;2.10;1.20;;;21.70;99.90;;;;;;4159538;28;20486;-77
2023/08/22 01:25:08;;;;;;;3.25;1.25;;;21.70;99.90;;;;;;4154824;28;20040;-76
2023/08/22 01:27:12;;;;;;;1.80;1.10;;;21.70;99.90;;;;;;4157711;28;20982;-77
2023/08/22 01:29:26;;;;;;;1.08;0.98;;;21.70;99.90;;;;;;4153399;28;20547;-77
2023/08/22 01:31:52;;;;;;;5.78;1.52;;;21.70;99.90;;;;;;4158355;28;20038;-77
2023/08/22 01:33:58;;;;;;;1.50;0.93;;;21.70;99.90;;;;;;4159674;28;20056;-77
2023/08/22 01:36:00;;;;;;;1.70;1.23;;;21.70;99.90;;;;;;4152583;28;20484;-77
2023/08/22 01:38:02;;;;;;;1.70;1.47;;;21.60;99.90;;;;;;4158355;28;20561;-77
2023/08/22 01:40:05;;;;;;;3.30;1.40;;;21.70;99.90;;;;;;4159044;28;20503;-77
2023/08/22 01:42:06;;;;;;;1.88;1.27;;;21.70;99.90;;;;;;4158758;28;20037;-76
2023/08/22 01:44:07;;;;;;;1.63;1.30;;;21.70;99.90;;;;;;4161017;28;20481;-77
2023/08/22 01:46:07;;;;;;;1.42;1.33;;;21.70;99.90;;;;;;4157452;28;20022;-76
2023/08/22 01:48:08;;;;;;;2.20;1.42;;;21.70;99.90;;;;;;4172316;28;20095;-77
2023/08/22 01:50:10;;;;;;;2.22;1.40;;;21.70;99.90;;;;;;4158018;28;20091;-76
2023/08/22 01:52:10;;;;;;;3.25;1.60;;;21.70;99.90;;;;;;4167278;28;20026;-77
2023/08/22 01:54:11;;;;;;;1.90;1.50;;;21.70;99.90;;;;;;4161559;28;20128;-77
2023/08/22 01:56:12;;;;;;;1.70;1.27;;;21.60;99.90;;;;;;4155617;28;20024;-77
2023/08/22 01:58:14;;;;;;;2.72;1.40;;;21.60;99.90;;;;;;4161278;28;20091;-77
2023/08/22 02:00:14;;;;;;;2.28;1.33;;;21.60;99.90;;;;;;4148203;28;20041;-77
2023/08/22 02:02:15;;;;;;;2.20;1.30;;;21.60;99.90;;;;;;4162680;28;20087;-77
2023/08/22 02:04:16;;;;;;;1.92;1.50;;;21.60;99.90;;;;;;4160506;28;20045;-77
2023/08/22 02:06:16;;;;;;;1.98;1.23;;;21.50;99.90;;;;;;4152316;28;20473;-77
2023/08/22 02:08:17;;;;;;;10.35;1.60;;;21.50;99.90;;;;;;4154932;28;20034;-76
2023/08/22 02:10:17;;;;;;;1.95;1.17;;;21.50;99.90;;;;;;4148769;28;20033;-62
2023/08/22 02:12:18;;;;;;;3.22;1.63;;;21.40;99.90;;;;;;4164609;28;20030;-62
2023/08/22 02:14:18;;;;;;;1.95;1.40;;;21.50;99.90;;;;;;4153905;28;20037;-62
2023/08/22 02:16:19;;;;;;;2.08;1.30;;;21.40;99.90;;;;;;4158713;28;20080;-64
2023/08/22 02:18:20;;;;;;;1.80;1.20;;;21.40;99.90;;;;;;4157270;28;20541;-62
2023/08/22 02:20:22;;;;;;;2.45;1.23;;;21.40;99.90;;;;;;4147483;28;20121;-62
2023/08/22 02:22:22;;;;;;;2.30;1.40;;;21.40;99.90;;;;;;4160401;28;20079;-62
2023/08/22 02:24:23;;;;;;;1.67;1.23;;;21.40;99.90;;;;;;4158898;28;20096;-62
2023/08/22 02:26:26;;;;;;;1.85;1.48;;;21.40;99.90;;;;;;4152777;28;20044;-62
2023/08/22 02:28:26;;;;;;;;;;;21.40;99.90;;;;;;4159548;28;20029;-62
2023/08/22 02:30:27;;;;;;;1.80;1.48;;;21.30;99.90;;;;;;4161238;28;19935;-62
2023/08/22 02:32:27;;;;;;;2.65;1.70;;;21.30;99.90;;;;;;4159114;28;20038;-62
2023/08/22 02:34:28;;;;;;;1.45;1.35;;;21.30;99.90;;;;;;4159426;28;20398;-62
2023/08/22 02:36:29;;;;;;;2.63;1.30;;;21.30;99.90;;;;;;4159050;28;20107;-62
2023/08/22 02:38:29;;;;;;;5.50;1.88;;;21.30;99.90;;;;;;4161606;28;20060;-62
2023/08/22 02:40:30;;;;;;;2.75;1.38;;;21.30;99.90;;;;;;4151502;28;20091;-62
2023/08/22 02:42:31;;;;;;;3.55;1.48;;;21.30;99.90;;;;;;4150966;28;20066;-62
2023/08/22 02:44:31;;;;;;;1.50;1.40;;;21.30;99.90;;;;;;4151887;28;20558;-62
2023/08/22 02:46:32;;;;;;;2.65;1.27;;;21.30;99.90;;;;;;4158542;28;20030;-62
2023/08/22 02:48:32;;;;;;;1.42;1.33;;;21.30;99.90;;;;;;4159696;28;20029;-62
2023/08/22 02:50:33;;;;;;;4.03;1.58;;;21.30;99.90;;;;;;4159636;28;20095;-62
2023/08/22 02:52:33;;;;;;;3.25;1.38;;;21.30;99.90;;;;;;4157007;28;20041;-62
2023/08/22 02:54:34;;;;;;;3.58;1.33;;;21.30;99.90;;;;;;4161310;28;20043;-62
2023/08/22 02:56:35;;;;;;;2.15;1.60;;;21.30;99.90;;;;;;4160693;28;20047;-62
2023/08/22 02:58:36;;;;;;;2.42;1.40;;;21.20;99.90;;;;;;4160163;28;20524;-62
2023/08/22 03:00:37;;;;;;;2.67;1.40;;;21.20;99.90;;;;;;4160863;28;20033;-62
2023/08/22 03:02:38;;;;;;;1.67;1.20;;;21.10;99.90;;;;;;4154516;28;20041;-62
2023/08/22 03:04:39;;;;;;;2.00;1.30;;;21.10;99.90;;;;;;4158569;28;20061;-62
2023/08/22 03:06:40;;;;;;;2.28;1.23;;;21.10;99.90;;;;;;4162386;28;20037;-62
2023/08/22 03:08:40;;;;;;;1.58;1.30;;;21.10;99.90;;;;;;4159230;28;20033;-62
2023/08/22 03:10:41;;;;;;;3.47;1.52;;;21.10;99.90;;;;;;4160583;28;20036;-62
2023/08/22 03:12:41;;;;;;;1.67;1.30;;;21.10;99.90;;;;;;4162458;28;20026;-62
2023/08/22 03:14:43;;;;;;;2.42;1.33;;;21.00;99.90;;;;;;4154077;28;20091;-62
2023/08/22 03:16:44;;;;;;;1.85;1.35;;;21.10;99.90;;;;;;4155345;28;20493;-63
2023/08/22 03:18:48;;;;;;;3.72;1.60;;;21.00;99.90;;;;;;4158377;28;20029;-70
2023/08/22 03:20:49;;;;;;;1.60;1.30;;;21.00;99.90;;;;;;4159973;28;20393;-64
2023/08/22 03:22:50;;;;;;;1.95;1.30;;;21.00;99.90;;;;;;4162146;28;20121;-64
2023/08/22 03:24:50;;;;;;;3.47;1.58;;;21.00;99.90;;;;;;4160751;28;20432;-65
2023/08/22 03:26:51;;;;;;;3.20;1.35;;;20.90;99.90;;;;;;4158800;28;20100;-65
2023/08/22 03:28:51;;;;;;;2.50;1.42;;;21.00;99.90;;;;;;4160145;28;20108;-64
2023/08/22 03:31:02;;;;;;;2.17;1.30;;;21.00;99.90;;;;;;4150994;28;20117;-64
2023/08/22 03:33:03;;;;;;;3.92;1.42;;;21.00;99.90;;;;;;4149434;28;20044;-64
2023/08/22 03:35:06;;;;;;;2.17;1.27;;;20.90;99.90;;;;;;4161109;28;20037;-64
2023/08/22 03:37:06;;;;;;;1.17;1.08;;;21.00;99.90;;;;;;4160177;28;20041;-64
2023/08/22 03:39:07;;;;;;;2.35;1.60;;;21.00;99.90;;;;;;4163560;28;20490;-64
2023/08/22 03:41:07;;;;;;;3.22;1.70;;;20.90;99.90;;;;;;4156148;28;20041;-64
2023/08/22 03:43:08;;;;;;;3.10;1.60;;;20.90;99.90;;;;;;4172898;28;20029;-64
2023/08/22 03:45:09;;;;;;;4.72;1.65;;;20.90;99.90;;;;;;4160607;28;20029;-64
2023/08/22 03:47:09;;;;;;;3.67;1.83;;;20.90;99.90;;;;;;4160353;28;20397;-63
2023/08/22 03:49:10;;;;;;;4.60;1.60;;;20.80;99.90;;;;;;4160398;28;20045;-64
2023/08/22 03:51:10;;;;;;;3.10;1.70;;;20.80;99.90;;;;;;4154965;28;20402;-63
2023/08/22 03:53:12;;;;;;;5.07;1.70;;;20.80;99.90;;;;;;4158062;28;20079;-63
2023/08/22 03:55:13;;;;;;;5.00;1.80;;;20.80;99.90;;;;;;4152957;28;20030;-64
2023/08/22 03:57:14;;;;;;;3.47;1.60;;;20.80;99.90;;;;;;4152663;28;20052;-64
2023/08/22 03:59:14;;;;;;;2.85;1.70;;;20.80;99.90;;;;;;4149819;28;20486;-66
2023/08/22 04:01:15;;;;;;;3.92;2.15;;;20.80;99.90;;;;;;4152042;28;20030;-65
2023/08/22 04:03:15;;;;;;;3.53;2.00;;;20.80;99.90;;;;;;4150664;28;22687;-64
2023/08/22 04:05:16;;;;;;;4.15;2.20;;;20.80;99.90;;;;;;4156052;28;20037;-64
2023/08/22 04:07:16;;;;;;;4.40;2.17;;;20.80;99.90;;;;;;4159058;28;20025;-64
2023/08/22 04:09:17;;;;;;;2.63;1.60;;;20.80;99.90;;;;;;4154294;28;20438;-64
2023/08/22 04:11:18;;;;;;;2.15;1.80;;;20.80;99.90;;;;;;4151741;28;20034;-64
2023/08/22 04:13:18;;;;;;;4.55;1.73;;;20.80;99.90;;;;;;4158589;28;20091;-64
2023/08/22 04:15:19;;;;;;;3.42;1.95;;;20.80;99.90;;;;;;4153134;28;20026;-64
2023/08/22 04:17:20;;;;;;;3.22;2.03;;;20.80;99.90;;;;;;4160060;28;20029;-64
2023/08/22 04:19:20;;;;;;;3.70;2.08;;;20.80;99.90;;;;;;4150613;28;20030;-64
2023/08/22 04:21:21;;;;;;;3.03;2.03;;;20.80;99.90;;;;;;4150980;28;20034;-64
2023/08/22 04:23:21;;;;;;;4.43;1.58;;;20.80;99.90;;;;;;4158773;28;20485;-64
2023/08/22 04:25:22;;;;;;;2.30;1.70;;;20.70;99.90;;;;;;4154399;28;20057;-65
2023/08/22 04:27:23;;;;;;;2.67;1.88;;;20.70;99.90;;;;;;4161038;28;20045;-64
2023/08/22 04:29:24;;;;;;;2.20;1.60;;;20.70;99.90;;;;;;4154862;28;20100;-77
2023/08/22 04:31:24;;;;;;;2.10;1.90;;;20.70;99.90;;;;;;4158702;28;20029;-62
2023/08/22 04:33:25;;;;;;;3.85;1.90;;;20.70;99.90;;;;;;4164820;28;20392;-62
2023/08/22 04:35:26;;;;;;;4.43;1.70;;;20.70;99.90;;;;;;4166913;28;20070;-62
2023/08/22 04:37:27;;;;;;;3.47;1.98;;;20.60;99.90;;;;;;4163510;28;20068;-62
2023/08/22 04:39:27;;;;;;;2.75;1.73;;;20.70;99.90;;;;;;4163883;28;20123;-62
2023/08/22 04:41:28;;;;;;;2.22;1.60;;;20.70;99.90;;;;;;4152234;28;20069;-62
2023/08/22 04:43:29;;;;;;;2.67;1.88;;;20.60;99.90;;;;;;4155138;28;20121;-62
2023/08/22 04:45:30;;;;;;;3.58;1.90;;;20.60;99.90;;;;;;4158226;28;20045;-62
2023/08/22 04:47:30;;;;;;;4.10;2.00;;;20.60;99.90;;;;;;4161070;28;20044;-62
2023/08/22 04:49:31;;;;;;;3.13;1.85;;;20.60;99.90;;;;;;4163481;28;20037;-62
2023/08/22 04:51:31;;;;;;;2.58;1.67;;;20.60;99.90;;;;;;4161767;28;20121;-63
2023/08/22 04:53:32;;;;;;;3.33;1.98;;;20.60;99.90;;;;;;4162436;28;20484;-62
2023/08/22 04:55:33;;;;;;;3.35;1.92;;;20.60;99.90;;;;;;4158289;28;20030;-62
2023/08/22 04:57:33;;;;;;;2.72;1.48;;;20.60;99.90;;;;;;4162130;28;20064;-62
2023/08/22 04:59:34;;;;;;;1.58;1.48;;;20.60;99.90;;;;;;4162633;28;20493;-62
2023/08/22 05:01:35;;;;;;;3.40;1.70;;;20.70;99.90;;;;;;4161469;28;20042;-62
2023/08/22 05:03:35;;;;;;;3.55;1.80;;;20.70;99.90;;;;;;4161589;28;20087;-62
2023/08/22 05:05:37;;;;;;;3.83;1.67;;;20.70;99.90;;;;;;4161301;28;20140;-62
2023/08/22 05:07:37;;;;;;;2.20;1.33;;;20.70;99.90;;;;;;4162126;28;20489;-62
2023/08/22 05:09:38;;;;;;;2.25;1.58;;;20.70;99.90;;;;;;4162224;28;20140;-62
2023/08/22 05:11:40;;;;;;;4.10;1.67;;;20.70;99.90;;;;;;4160312;28;20037;-62
2023/08/22 05:13:40;;;;;;;2.72;1.80;;;20.70;99.90;;;;;;4162597;28;20040;-62
2023/08/22 05:15:42;;;;;;;2.63;1.77;;;20.70;99.90;;;;;;4161778;28;20080;-62
2023/08/22 05:17:43;;;;;;;5.00;1.90;;;20.70;99.90;;;;;;4162138;28;20118;-62
2023/08/22 05:19:43;;;;;;;1.88;1.50;;;20.70;99.90;;;;;;4162231;28;20038;-62
2023/08/22 05:21:44;;;;;;;1.73;1.40;;;20.70;99.90;;;;;;4161457;28;20141;-62
2023/08/22 05:23:45;;;;;;;2.33;1.45;;;20.70;99.90;;;;;;4161716;28;20087;-62
2023/08/22 05:25:45;;;;;;;2.63;1.63;;;20.70;99.90;;;;;;4160243;28;20045;-64
2023/08/22 05:27:46;;;;;;;1.60;1.25;;;20.70;99.90;;;;;;4161701;28;20069;-63
2023/08/22 05:29:47;;;;;;;1.85;1.40;;;20.70;99.90;;;;;;4160305;28;20038;-62
2023/08/22 05:31:47;;;;;;;3.38;1.50;;;20.70;99.90;;;;;;4161265;28;20029;-62
2023/08/22 05:33:48;;;;;;;2.30;1.67;;;20.70;99.90;;;;;;4160093;28;20033;-62
2023/08/22 05:35:49;;;;;;;1.50;1.40;;;20.70;99.90;;;;;;4158184;28;20037;-62
2023/08/22 05:37:50;;;;;;;1.73;1.63;;;20.70;99.90;;;;;;4162751;28;20022;-62
2023/08/22 05:39:50;;;;;;;3.15;1.30;;;20.70;99.90;;;;;;4154505;28;20037;-62
2023/08/22 05:41:51;;;;;;;2.42;1.60;;;20.70;99.90;;;;;;4156132;28;20448;-62
2023/08/22 05:43:52;;;;;;;3.33;1.92;;;20.70;99.90;;;;;;4157182;28;20037;-62
2023/08/22 05:45:52;;;;;;;3.92;1.80;;;20.70;99.90;;;;;;4154855;28;20048;-65
2023/08/22 05:47:53;;;;;;;1.92;1.30;;;20.70;99.90;;;;;;4160596;28;20030;-63
2023/08/22 05:49:53;;;;;;;3.28;2.00;;;20.80;99.90;;;;;;4162004;28;20025;-71
2023/08/22 05:52:05;;;;;;;3.28;1.88;;;20.80;99.90;;;;;;4171113;28;20029;-71
2023/08/22 05:54:05;;;;;;;3.78;2.03;;;20.80;99.90;;;;;;4177060;28;20033;-72
2023/08/22 05:56:06;;;;;;;2.55;1.85;;;20.80;99.90;;;;;;4172274;28;20375;-71
2023/08/22 05:58:06;;;;;;;2.88;1.70;;;20.80;99.90;;;;;;4158745;28;20046;-71
2023/08/22 06:00:08;;;;;;;5.28;2.15;;;20.90;99.90;;;;;;4161180;28;20117;-71
2023/08/22 06:02:09;;;;;;;4.47;2.20;;;20.90;99.90;;;;;;4159203;28;20037;-71
2023/08/22 06:04:10;;;;;;;2.75;1.80;;;20.90;99.90;;;;;;4157445;28;20042;-71
2023/08/22 06:06:10;;;;;;;3.60;2.30;;;21.00;99.90;;;;;;4152681;28;20026;-71
2023/08/22 06:08:11;;;;;;;2.25;1.77;;;21.00;99.90;;;;;;4160381;28;20351;-71
2023/08/22 06:10:12;;;;;;;2.63;1.98;;;21.00;99.90;;;;;;4165387;28;20091;-71
2023/08/22 06:12:12;;;;;;;3.90;1.88;;;21.10;99.90;;;;;;4158720;28;20045;-71
2023/08/22 06:14:13;;;;;;;3.15;2.10;;;21.20;99.90;;;;;;4158131;28;20038;-71
2023/08/22 06:16:14;;;;;;;2.92;2.33;;;21.20;99.90;;;;;;4159903;28;20385;-72
2023/08/22 06:18:14;;;;;;;4.03;2.25;;;21.20;99.90;;;;;;4161794;28;20030;-72
2023/08/22 06:20:15;;;;;;;3.35;2.20;;;21.30;99.90;;;;;;4156982;28;20037;-72
2023/08/22 06:22:15;;;;;;;4.38;2.45;;;21.40;99.90;;;;;;4162208;28;20034;-71
2023/08/22 06:24:16;;;;;;;5.65;2.83;;;21.40;99.90;;;;;;4159288;28;20030;-68
2023/08/22 06:26:17;;;;;;;3.17;2.47;;;21.50;99.90;;;;;;4160373;28;20034;-71
2023/08/22 06:28:18;;;;;;;5.95;2.92;;;21.50;99.90;;;;;;4161160;28;20026;-71
2023/08/22 06:30:18;;;;;;;4.85;2.90;;;21.60;99.90;;;;;;4158716;28;20072;-70
2023/08/22 06:32:21;;;;;;;4.57;2.55;;;21.60;99.90;;;;;;4158420;28;20061;-71
2023/08/22 06:34:21;;;;;;;3.75;2.50;;;21.70;99.90;;;;;;4159709;28;20489;-71
2023/08/22 06:36:22;;;;;;;3.60;2.85;;;21.70;99.90;;;;;;4160357;28;20040;-72
2023/08/22 06:38:23;;;;;;;6.03;3.60;;;21.80;99.90;;;;;;4173242;28;20091;-72
2023/08/22 06:40:24;;;;;;;8.65;3.72;;;21.80;99.90;;;;;;4158952;28;20071;-72
2023/08/22 06:42:24;;;;;;;5.55;3.58;;;21.90;99.90;;;;;;4160110;28;20038;-72
2023/08/22 06:44:25;;;;;;;5.13;3.08;;;22.00;99.90;;;;;;4160693;28;20037;-72
2023/08/22 06:46:27;;;;;;;5.65;3.10;;;22.20;99.90;;;;;;4159840;28;20037;-72
2023/08/22 06:48:27;;;;;;;6.97;3.75;;;22.40;99.90;;;;;;4159138;28;20040;-73
2023/08/22 06:50:28;;;;;;;5.00;3.13;;;22.70;99.90;;;;;;4158594;28;20045;-73
2023/08/22 06:52:29;;;;;;;7.05;3.28;;;23.00;99.90;;;;;;4160695;28;20396;-73
2023/08/22 06:54:30;;;;;;;6.55;3.55;;;23.30;99.90;;;;;;4159410;28;20056;-73
2023/08/22 06:56:31;;;;;;;5.17;3.47;;;23.60;99.90;;;;;;4158610;28;20029;-73
2023/08/22 06:58:32;;;;;;;7.40;3.47;;;23.80;99.90;;;;;;4161851;28;20266;-73
2023/08/22 07:00:32;;;;;;;5.57;3.50;;;23.90;99.90;;;;;;4159891;28;20037;-73
2023/08/22 07:02:33;;;;;;;5.80;2.92;;;24.10;99.90;;;;;;4160978;28;20528;-73
2023/08/22 07:04:33;;;;;;;5.57;3.08;;;24.20;99.90;;;;;;4160444;28;20037;-74
2023/08/22 07:06:34;;;;;;;7.30;3.53;;;24.30;99.90;;;;;;4159760;28;20382;-74
2023/08/22 07:08:35;;;;;;;4.65;3.20;;;24.40;99.90;;;;;;4162362;28;20080;-73
2023/08/22 07:10:35;;;;;;;6.05;2.80;;;24.50;99.90;;;;;;4160006;28;20057;-69
2023/08/22 07:12:37;;;;;;;4.90;2.60;;;24.70;99.90;;;;;;4160120;28;21508;-69
2023/08/22 07:14:42;;;;;;;4.57;3.10;;;24.80;99.90;;;;;;4159362;28;20087;-69
2023/08/22 07:16:42;;;;;;;4.38;2.75;;;24.90;99.90;;;;;;4156770;28;20103;-69
2023/08/22 07:18:43;;;;;;;5.75;2.47;;;25.00;99.90;;;;;;4157124;28;20186;-69
2023/08/22 07:20:45;;;;;;;5.43;2.78;;;25.10;99.90;;;;;;4159318;28;20045;-69
2023/08/22 07:22:45;;;;;;;3.72;2.47;;;25.20;99.90;;;;;;4157447;28;20037;-69
2023/08/22 07:24:46;;;;;;;3.78;2.30;;;25.30;99.90;;;;;;4158513;28;20025;-69
2023/08/22 07:26:47;;;;;;;4.75;2.50;;;25.30;99.90;;;;;;4158989;28;20497;-69
2023/08/22 07:28:47;;;;;;;4.05;2.53;;;25.40;99.90;;;;;;4158009;28;20164;-69
2023/08/22 07:30:48;;;;;;;4.45;2.25;;;25.40;99.90;;;;;;4154862;28;20379;-69
2023/08/22 07:32:49;;;;;;;4.35;2.38;;;25.50;99.90;;;;;;4155487;28;20199;-69
2023/08/22 07:34:49;;;;;;;3.58;2.08;;;25.60;99.90;;;;;;4155313;28;20044;-68
2023/08/22 07:36:50;;;;;;;3.25;2.17;;;25.60;99.90;;;;;;4152512;28;20340;-69
2023/08/22 07:38:51;;;;;;;4.30;2.33;;;25.70;99.90;;;;;;4155959;28;20042;-68
2023/08/22 07:40:51;;;;;;;4.40;2.08;;;25.70;99.90;;;;;;4155562;28;20095;-68
2023/08/22 07:42:52;;;;;;;5.85;2.67;;;25.80;99.90;;;;;;4156419;28;20041;-69
2023/08/22 07:44:52;;;;;;;3.10;2.30;;;25.90;99.90;;;;;;4155965;28;20030;-69
2023/08/22 07:46:53;;;;;;;4.93;2.10;;;25.90;99.90;;;;;;4151820;28;20044;-69
2023/08/22 07:48:54;;;;;;;2.60;1.63;;;26.00;99.90;;;;;;4151852;28;20034;-69
2023/08/22 07:50:55;;;;;;;2.28;1.65;;;26.00;99.90;;;;;;4156159;28;20045;-69
2023/08/22 07:52:57;;;;;;;3.42;1.67;;;26.00;99.90;;;;;;4157583;28;20044;-69
2023/08/22 07:54:57;;;;;;;5.07;3.28;;;26.10;99.90;;;;;;4138242;28;20512;-68
2023/08/22 07:56:58;;;;;;;6.20;3.10;;;26.10;99.90;;;;;;4156989;28;20034;-69
2023/08/22 07:58:59;;;;;;;4.97;2.70;;;26.00;99.90;;;;;;4158039;28;20513;-69
2023/08/22 08:00:59;;;;;;;6.00;2.67;;;26.10;99.90;;;;;;4156485;28;20037;-68
2023/08/22 08:03:00;;;;;;;3.90;2.10;;;26.10;99.90;;;;;;4153875;28;20029;-69
2023/08/22 08:05:01;;;;;;;3.17;1.92;;;26.20;99.90;;;;;;4159175;28;20516;-69
2023/08/22 08:07:01;;;;;;;2.33;1.52;;;26.20;99.90;;;;;;4160522;28;20508;-69
2023/08/22 08:09:06;;;;;;;3.70;1.85;;;26.20;99.90;;;;;;4160798;28;20374;-69
2023/08/22 08:11:06;;;;;;;3.03;1.60;;;26.20;99.90;;;;;;4158365;28;20559;-69
2023/08/22 08:13:07;;;;;;;2.70;1.35;;;26.20;99.90;;;;;;4161759;28;20045;-69
2023/08/22 08:15:08;;;;;;;4.85;2.03;;;26.20;99.90;;;;;;4161589;28;20033;-69
2023/08/22 08:17:08;;;;;;;4.50;1.80;;;26.20;99.90;;;;;;4161136;28;20329;-69
2023/08/22 08:19:10;;;;;;;3.80;1.63;;;26.20;99.90;;;;;;4162514;28;20039;-73
2023/08/22 08:21:11;;;;;;;4.20;1.93;;;26.20;99.90;;;;;;4160999;28;20064;-70
2023/08/22 08:23:11;;;;;;;3.33;1.98;;;26.30;99.90;;;;;;4161293;28;20476;-70
2023/08/22 08:25:12;;;;;;;4.63;1.90;;;26.30;99.90;;;;;;4160978;28;20053;-70
2023/08/22 08:27:12;;;;;;;3.25;1.77;;;26.20;99.90;;;;;;4161569;28;20037;-70
2023/08/22 08:29:13;;;;;;;4.40;1.80;;;26.30;99.90;;;;;;4161834;28;20088;-70
2023/08/22 08:31:14;;;;;;;3.55;1.88;;;26.20;99.90;;;;;;4158276;28;20063;-70
2023/08/22 08:33:14;;;;;;;3.22;1.88;;;26.30;99.90;;;;;;4159246;28;20037;-71
2023/08/22 08:35:15;;;;;;;2.97;1.90;;;26.30;99.90;;;;;;4160188;28;20401;-71
2023/08/22 08:37:16;;;;;;;4.70;2.15;;;26.20;99.90;;;;;;4161528;28;20026;-71
2023/08/22 08:39:17;;;;;;;4.05;2.03;;;26.20;99.90;;;;;;4160860;28;20128;-71
2023/08/22 08:41:20;;;;;;;2.92;1.73;;;26.20;99.90;;;;;;4158396;28;20045;-69
2023/08/22 08:43:22;;;;;;;4.47;1.75;;;26.10;99.90;;;;;;4158106;28;20068;-71
2023/08/22 08:45:22;;;;;;;4.68;2.22;;;26.20;99.90;;;;;;4160463;28;20037;-70
2023/08/22 08:47:24;;;;;;;4.30;2.05;;;26.10;99.90;;;;;;4161067;28;20033;-70
2023/08/22 08:49:25;;;;;;;2.10;1.40;;;26.10;99.90;;;;;;4160609;28;20060;-70
2023/08/22 08:51:28;;;;;;;2.97;1.65;;;26.10;99.90;;;;;;4160169;28;20548;-70
2023/08/22 08:53:29;;;;;;;3.38;1.80;;;26.10;99.90;;;;;;4158849;28;20041;-70
2023/08/22 08:55:31;;;;;;;5.28;2.33;;;26.10;99.90;;;;;;4160143;28;20033;-69
2023/08/22 08:57:32;;;;;;;2.65;1.80;;;26.10;99.90;;;;;;4159485;28;20068;-70
2023/08/22 08:59:32;;;;;;;2.92;2.22;;;26.10;99.90;;;;;;4161064;28;20042;-70
2023/08/22 09:01:34;;;;;;;2.67;1.70;;;26.10;99.90;;;;;;4157375;28;20033;-70
2023/08/22 09:03:35;;;;;;;3.83;1.70;;;26.10;99.90;;;;;;4159409;28;20049;-70
2023/08/22 09:05:36;;;;;;;4.28;2.10;;;26.00;99.90;;;;;;4158420;28;20037;-70
2023/08/22 09:07:43;;;;;;;4.70;2.25;;;26.00;99.90;;;;;;4161472;28;20026;-70
2023/08/22 09:09:44;;;;;;;2.63;1.50;;;26.10;99.90;;;;;;4160705;28;20405;-71
2023/08/22 09:11:46;;;;;;;7.80;2.75;;;26.00;99.90;;;;;;4160201;28;20025;-71
2023/08/22 09:13:47;;;;;;;5.68;2.58;;;26.00;99.90;;;;;;4161174;28;20047;-70
2023/08/22 09:15:48;;;;;;;4.70;2.30;;;25.90;99.90;;;;;;4158507;28;20456;-69
2023/08/22 09:17:48;;;;;;;4.95;2.15;;;25.90;99.90;;;;;;4159072;28;20035;-69
2023/08/22 09:19:51;;;;;;;5.55;2.78;;;25.90;99.90;;;;;;4159231;28;20091;-70
2023/08/22 09:21:59;;;;;;;3.63;2.38;;;25.90;99.90;;;;;;4159468;28;20044;-70
2023/08/22 09:24:10;;;;;;;4.43;2.03;;;25.90;99.90;;;;;;4158388;28;20033;-70
2023/08/22 09:26:11;;;;;;;3.55;2.10;;;25.90;99.90;;;;;;4159273;28;20030;-70
2023/08/22 09:28:12;;;;;;;6.28;3.00;;;25.80;99.90;;;;;;4160485;28;20048;-70
2023/08/22 09:30:14;;;;;;;5.15;2.13;;;25.90;99.90;;;;;;4158903;28;20037;-74
2023/08/22 09:32:14;;;;;;;6.45;2.35;;;25.80;99.90;;;;;;4183303;28;20040;-74
2023/08/22 09:34:15;;;;;;;3.47;1.73;;;25.80;99.90;;;;;;4159136;28;20044;-75
2023/08/22 09:36:20;;;;;;;3.72;1.88;;;25.80;99.90;;;;;;4159092;28;20500;-75
2023/08/22 09:38:20;;;;;;;4.13;2.00;;;25.80;99.90;;;;;;4152621;28;20109;-76
2023/08/22 09:40:21;;;;;;;3.53;1.38;;;25.80;99.90;;;;;;4157653;28;20768;-75
2023/08/22 09:42:29;;;;;;;2.85;1.60;;;25.80;99.90;;;;;;4160586;28;20477;-75
2023/08/22 09:44:30;;;;;;;3.75;1.92;;;25.90;99.90;;;;;;4160154;28;20075;-76
2023/08/22 09:46:31;;;;;;;4.47;1.70;;;25.90;99.90;;;;;;4159046;28;20033;-70
2023/08/22 09:48:34;;;;;;;4.45;1.63;;;25.90;99.90;;;;;;4160870;28;20057;-75
2023/08/22 09:50:40;;;;;;;4.43;1.95;;;26.00;99.90;;;;;;4157609;28;20509;-74
2023/08/22 09:52:40;;;;;;;2.40;1.70;;;26.00;99.90;;;;;;4160482;28;20122;-74
2023/08/22 09:54:43;;;;;;;5.95;1.90;;;26.00;99.90;;;;;;4160235;28;20041;-74
2023/08/22 09:56:45;;;;;;;4.38;1.98;;;26.00;99.90;;;;;;4154563;28;20084;-74
2023/08/22 09:58:46;;;;;;;4.20;2.10;;;26.00;99.90;;;;;;4159983;28;20118;-75
2023/08/22 10:00:50;;;;;;;2.23;1.27;;;26.00;99.90;;;;;;4159512;28;20509;-75
2023/08/22 10:02:51;;;;;;;2.88;1.65;;;26.00;99.90;;;;;;4158077;28;20037;-74
2023/08/22 10:04:52;;;;;;;3.35;1.98;;;26.10;99.90;;;;;;4160054;28;20052;-75
2023/08/22 10:06:52;;;;;;;2.92;1.90;;;26.00;99.90;;;;;;4159164;28;20048;-74
2023/08/22 10:08:53;;;;;;;3.30;2.03;;;26.10;99.90;;;;;;4155463;28;20485;-75
2023/08/22 10:10:54;;;;;;;2.35;1.73;;;26.10;99.90;;;;;;4159665;28;20042;-75
2023/08/22 10:12:56;;;;;;;3.15;1.75;;;26.10;99.90;;;;;;4160558;28;20044;-75
2023/08/22 10:14:58;;;;;;;4.80;1.75;;;26.10;99.90;;;;;;4159799;28;20113;-75
2023/08/22 10:16:59;;;;;;;2.60;1.63;;;26.00;99.90;;;;;;4158649;28;20029;-75
2023/08/22 10:19:02;;;;;;;5.60;1.83;;;26.10;99.90;;;;;;4159244;28;20029;-75
2023/08/22 10:21:05;;;;;;;3.45;1.70;;;26.00;99.90;;;;;;4159144;28;20524;-74
2023/08/22 10:23:07;;;;;;;3.25;1.67;;;26.10;99.90;;;;;;4160001;28;20116;-75
2023/08/22 10:25:08;;;;;;;3.50;1.70;;;26.10;99.90;;;;;;4159658;28;20120;-75
2023/08/22 10:27:16;;;;;;;4.63;2.00;;;26.10;99.90;;;;;;4159182;28;20405;-75
2023/08/22 10:29:17;;;;;;;3.13;1.55;;;26.10;99.90;;;;;;4158548;28;20041;-74
2023/08/22 10:31:18;;;;;;;3.97;1.55;;;26.00;99.90;;;;;;4156786;28;20126;-75
2023/08/22 10:33:28;;;;;;;2.85;1.38;;;26.10;99.90;;;;;;4158839;28;20048;-75